Time;durP1;ratioP1;P1;durP2;ratioP2;P2;SDS_P1;SDS_P2;PMS_P1;PMS_P2;Temp;Humidity;BMP_temperature;BMP_pressure;BME280_temperature;BME280_humidity;BME280_pressure;Samples;Min_cycle;Max_cycle;Signal;HPM_P1;HPM_P2
2022/05/22 00:01:51;;;;;;;23.83;6.88;;;;;;;11.64;88.20;101763.44;5032703;28;20547;-78
2022/05/22 00:04:17;;;;;;;17.00;6.22;;;;;;;11.64;88.21;101760.72;5051791;28;20100;-78
2022/05/22 00:06:42;;;;;;;20.05;6.47;;;;;;;11.64;88.23;101755.34;5048856;28;20447;-79
2022/05/22 00:09:07;;;;;;;17.38;6.60;;;;;;;11.62;88.12;101751.91;5057914;28;20400;-78
2022/05/22 00:11:33;;;;;;;20.60;6.43;;;;;;;11.64;88.23;101758.03;5070713;28;20017;-78
2022/05/22 00:13:59;;;;;;;20.85;6.20;;;;;;;11.64;88.39;101750.84;5069730;28;20479;-78
2022/05/22 00:16:36;;;;;;;18.90;6.35;;;;;;;11.69;88.65;101747.84;5050667;28;20037;-78
2022/05/22 00:19:22;;;;;;;17.60;6.53;;;;;;;11.70;88.80;101752.28;5077074;28;20024;-78
2022/05/22 00:21:48;;;;;;;16.92;5.72;;;;;;;11.69;89.09;101751.41;5049358;28;20033;-78
2022/05/22 00:24:16;;;;;;;19.17;6.97;;;;;;;11.71;89.65;101749.50;5057416;28;20059;-78
2022/05/22 00:26:41;;;;;;;25.60;6.10;;;;;;;11.74;89.74;101743.03;5069816;28;20100;-78
2022/05/22 00:29:07;;;;;;;18.42;6.10;;;;;;;11.78;89.57;101739.19;5063245;28;20122;-78
2022/05/22 00:31:33;;;;;;;17.50;6.68;;;;;;;11.80;89.34;101742.66;5069076;28;20085;-78
2022/05/22 00:33:58;;;;;;;18.65;6.55;;;;;;;11.83;89.47;101726.28;5070646;28;20032;-78
2022/05/22 00:36:24;;;;;;;19.73;6.53;;;;;;;11.86;89.66;101736.03;5068401;28;20025;-79
2022/05/22 00:38:49;;;;;;;20.40;6.50;;;;;;;11.85;88.55;101735.13;5052496;28;20084;-79
2022/05/22 00:41:15;;;;;;;16.75;6.32;;;;;;;11.88;89.04;101729.53;5067215;28;20020;-78
2022/05/22 00:43:43;;;;;;;20.65;6.65;;;;;;;11.92;89.33;101732.91;5069413;28;20075;-78
2022/05/22 00:46:11;;;;;;;21.23;7.22;;;;;;;11.93;88.73;101728.38;5070177;28;20648;-78
2022/05/22 00:48:39;;;;;;;19.85;6.82;;;;;;;11.97;88.87;101727.25;5062873;28;20034;-79
2022/05/22 00:51:20;;;;;;;18.02;6.18;;;;;;;12.01;88.74;101718.88;5089172;28;20038;-79
2022/05/22 00:53:51;;;;;;;20.02;7.63;;;;;;;11.99;88.30;101722.63;5069469;28;20372;-79
2022/05/22 00:56:20;;;;;;;25.48;7.75;;;;;;;12.01;87.84;101723.41;5068125;28;20033;-79
2022/05/22 00:58:50;;;;;;;20.63;7.35;;;;;;;12.04;87.97;101721.34;5055306;28;20036;-79
2022/05/22 01:01:15;;;;;;;19.40;7.40;;;;;;;12.04;87.22;101715.13;5068837;28;20024;-79
2022/05/22 01:03:41;;;;;;;21.60;7.47;;;;;;;12.01;86.84;101713.47;5069240;28;20431;-79
2022/05/22 01:06:09;;;;;;;20.98;8.38;;;;;;;11.99;86.76;101710.03;5068686;28;20051;-79
2022/05/22 01:08:37;;;;;;;22.02;7.88;;;;;;;11.97;86.76;101711.09;5053807;28;20049;-78
2022/05/22 01:11:07;;;;;;;23.15;8.73;;;;;;;11.93;86.54;101712.22;5061082;28;20428;-78
2022/05/22 01:13:36;;;;;;;24.40;7.43;;;;;;;11.92;86.18;101718.56;5074073;28;20033;-78
2022/05/22 01:16:04;;;;;;;23.30;7.90;;;;;;;11.89;86.38;101733.13;5073395;28;20090;-79
2022/05/22 01:18:39;;;;;;;20.48;8.18;;;;;;;11.88;86.40;101726.84;5070010;28;20027;-78
2022/05/22 01:21:29;;;;;;;22.20;9.10;;;;;;;11.84;86.26;101719.94;5067337;28;20056;-78
2022/05/22 01:23:55;;;;;;;26.00;8.90;;;;;;;11.81;86.16;101725.50;5067281;28;20486;-78
2022/05/22 01:26:22;;;;;;;21.42;8.05;;;;;;;11.78;86.19;101717.63;5070547;28;20028;-78
2022/05/22 01:28:48;;;;;;;21.13;8.45;;;;;;;11.74;86.35;101710.72;5070897;28;20057;-78
2022/05/22 01:31:13;;;;;;;21.25;8.63;;;;;;;11.70;86.71;101704.66;5072228;28;20024;-78
2022/05/22 01:33:40;;;;;;;20.40;7.90;;;;;;;11.63;86.75;101699.78;5070518;28;20028;-78
2022/05/22 01:36:07;;;;;;;25.88;9.57;;;;;;;11.61;86.74;101699.00;5073511;28;20036;-78
2022/05/22 01:38:34;;;;;;;25.88;8.30;;;;;;;11.59;86.88;101696.41;5073307;28;20034;-78
2022/05/22 01:41:00;;;;;;;22.85;8.82;;;;;;;11.59;86.48;101692.88;5056551;28;20057;-78
2022/05/22 01:43:25;;;;;;;19.17;8.10;;;;;;;11.56;86.60;101688.53;5065593;28;20472;-78
2022/05/22 01:45:51;;;;;;;21.33;8.00;;;;;;;11.50;86.56;101687.09;5068590;28;20032;-78
2022/05/22 01:48:16;;;;;;;20.58;8.43;;;;;;;11.43;87.14;101685.75;5075265;28;20024;-78
2022/05/22 01:50:43;;;;;;;24.50;9.93;;;;;;;11.38;87.12;101685.19;5062493;28;20032;-78
2022/05/22 01:53:09;;;;;;;23.02;8.32;;;;;;;11.34;87.08;101680.97;5073333;28;20376;-78
2022/05/22 01:55:35;;;;;;;22.95;8.82;;;;;;;11.29;86.91;101685.75;5069974;28;20032;-78
2022/05/22 01:58:00;;;;;;;27.95;9.20;;;;;;;11.20;86.97;101687.22;5073117;28;20107;-78
2022/05/22 02:00:26;;;;;;;22.50;9.18;;;;;;;11.14;86.80;101698.34;5071386;28;20067;-78
2022/05/22 02:02:56;;;;;;;19.05;7.68;;;;;;;11.09;87.32;101698.66;5071144;28;20174;-78
2022/05/22 02:05:21;;;;;;;21.88;9.15;;;;;;;11.07;87.77;101691.63;5070441;28;20036;-78
2022/05/22 02:10:32;;;;;;;23.73;8.05;;;;;;;11.02;87.75;101678.47;5070548;28;20052;-78
2022/05/22 02:12:57;;;;;;;22.90;8.18;;;;;;;10.97;87.56;101677.91;5051116;28;20025;-78
2022/05/22 02:15:23;;;;;;;22.83;8.27;;;;;;;10.90;87.51;101680.09;5066772;28;20028;-78
2022/05/22 02:17:49;;;;;;;20.90;8.27;;;;;;;10.84;87.42;101673.25;5072708;28;20025;-78
2022/05/22 02:20:14;;;;;;;20.60;8.18;;;;;;;10.81;87.42;101667.22;5092527;28;20032;-78
2022/05/22 02:22:46;;;;;;;19.38;7.80;;;;;;;10.79;87.47;101675.38;5076513;28;20108;-78
2022/05/22 02:25:14;;;;;;;22.73;9.13;;;;;;;10.75;87.76;101672.97;5066885;28;20032;-78
2022/05/22 02:27:40;;;;;;;20.20;8.60;;;;;;;10.72;87.60;101668.63;5069430;28;20029;-78
2022/05/22 02:30:06;;;;;;;22.42;8.13;;;;;;;10.64;88.19;101660.16;5070786;28;20043;-78
2022/05/22 02:32:32;;;;;;;23.50;9.45;;;;;;;10.63;88.23;101666.50;5071039;28;20110;-78
2022/05/22 02:34:57;;;;;;;19.90;8.50;;;;;;;10.59;88.57;101652.38;5059775;28;20072;-78
2022/05/22 02:37:22;;;;;;;27.35;9.45;;;;;;;10.54;88.60;101656.31;5066300;28;20028;-78
2022/05/22 02:39:48;;;;;;;21.42;9.00;;;;;;;10.51;88.90;101645.75;5072135;28;20028;-78
2022/05/22 02:42:13;;;;;;;22.02;9.10;;;;;;;10.48;88.88;101639.59;5068808;28;20035;-78
2022/05/22 02:44:39;;;;;;;22.80;8.90;;;;;;;10.46;88.63;101641.50;5068913;28;20032;-78
2022/05/22 02:47:04;;;;;;;18.60;8.32;;;;;;;10.43;88.47;101630.94;5069632;28;20020;-78
2022/05/22 02:49:29;;;;;;;21.95;8.40;;;;;;;10.39;88.81;101640.13;5086131;28;20065;-78
2022/05/22 02:51:55;;;;;;;21.50;8.35;;;;;;;10.36;89.02;101637.63;5066915;28;20051;-78
2022/05/22 02:54:21;;;;;;;23.45;9.00;;;;;;;10.31;89.37;101642.41;5035280;28;20112;-78
2022/05/22 02:56:47;;;;;;;20.67;9.32;;;;;;;10.26;89.47;101649.84;5061922;28;20044;-78
2022/05/22 02:59:12;;;;;;;20.45;8.55;;;;;;;10.28;90.07;101650.66;5056096;28;20483;-78
2022/05/22 03:01:37;;;;;;;20.02;8.50;;;;;;;10.28;90.38;101643.44;5066861;28;20067;-78
2022/05/22 03:04:03;;;;;;;19.00;8.23;;;;;;;10.29;90.15;101649.66;5049936;28;20085;-78
2022/05/22 03:06:38;;;;;;;25.23;8.57;;;;;;;10.30;90.60;101641.50;5050197;28;20029;-78
2022/05/22 03:09:13;;;;;;;22.63;8.18;;;;;;;10.33;90.29;101640.47;5051568;28;20041;-78
2022/05/22 03:11:39;;;;;;;21.05;8.60;;;;;;;10.35;90.25;101638.59;5064696;28;20102;-78
2022/05/22 03:14:05;;;;;;;23.25;9.15;;;;;;;10.32;90.12;101634.25;5056206;28;20029;-79
2022/05/22 03:16:30;;;;;;;19.17;8.32;;;;;;;10.32;90.06;101631.56;5056985;28;20044;-78
2022/05/22 03:18:55;;;;;;;20.50;8.85;;;;;;;10.30;89.73;101635.28;5079715;28;20391;-78
2022/05/22 03:21:21;;;;;;;22.73;8.65;;;;;;;10.28;89.97;101627.31;5080873;28;20475;-78
2022/05/22 03:23:46;;;;;;;19.02;7.88;;;;;;;10.30;89.91;101630.78;5066095;28;20032;-78
2022/05/22 03:26:11;;;;;;;21.52;8.50;;;;;;;10.26;90.04;101623.88;5050106;28;20021;-78
2022/05/22 03:28:37;;;;;;;21.38;8.73;;;;;;;10.28;90.66;101626.47;5049951;28;20028;-78
2022/05/22 03:31:03;;;;;;;22.33;8.20;;;;;;;10.29;91.06;101620.13;5066803;28;20070;-78
2022/05/22 03:33:28;;;;;;;23.85;9.07;;;;;;;10.30;90.81;101621.84;5060193;28;20035;-78
2022/05/22 03:35:53;;;;;;;24.83;9.00;;;;;;;10.30;90.88;101619.16;5058212;28;20056;-78
2022/05/22 03:38:19;;;;;;;21.92;8.77;;;;;;;10.29;90.70;101606.69;5071372;28;20056;-78
2022/05/22 03:40:46;;;;;;;21.60;8.57;;;;;;;10.25;90.43;101618.56;5056646;28;20102;-78
2022/05/22 03:43:12;;;;;;;22.70;9.25;;;;;;;10.23;90.15;101601.69;5049481;28;20132;-78
2022/05/22 03:45:37;;;;;;;21.10;8.52;;;;;;;10.17;89.79;101605.59;5068160;28;20043;-78
2022/05/22 03:48:03;;;;;;;22.85;8.75;;;;;;;10.12;89.36;101600.50;5071961;28;20036;-78
2022/05/22 03:50:29;;;;;;;21.38;9.50;;;;;;;10.08;90.52;101600.78;5076927;28;20025;-78
2022/05/22 03:52:54;;;;;;;20.15;9.52;;;;;;;10.05;90.54;101596.44;5069636;28;20025;-78
2022/05/22 03:55:19;;;;;;;17.27;7.15;;;;;;;10.02;90.62;101598.47;5065796;28;20417;-78
2022/05/22 03:57:46;;;;;;;19.75;7.45;;;;;;;9.99;90.76;101599.50;5070923;28;20043;-78
2022/05/22 04:00:12;;;;;;;19.42;7.38;;;;;;;9.96;90.37;101603.22;5069418;28;20097;-78
2022/05/22 04:02:37;;;;;;;23.25;6.80;;;;;;;9.92;89.79;101606.19;5067946;28;20395;-78
2022/05/22 04:05:04;;;;;;;20.38;7.65;;;;;;;9.93;89.89;101616.84;5062938;28;20029;-78
2022/05/22 04:07:29;;;;;;;18.83;7.75;;;;;;;9.87;89.88;101614.50;5051060;28;20035;-78
2022/05/22 04:09:57;;;;;;;17.92;6.80;;;;;;;9.86;90.26;101611.91;5050076;28;20048;-78
2022/05/22 04:12:22;;;;;;;18.40;6.97;;;;;;;9.84;89.95;101608.44;5049434;28;20472;-78
2022/05/22 04:14:48;;;;;;;17.80;7.47;;;;;;;9.83;90.36;101604.91;5050619;28;20032;-78
2022/05/22 04:17:13;;;;;;;19.30;6.57;;;;;;;9.84;90.38;101606.63;5060546;28;20052;-78
2022/05/22 04:19:38;;;;;;;21.75;7.78;;;;;;;9.85;90.43;101604.81;5072940;28;20037;-78
2022/05/22 04:22:05;;;;;;;20.42;7.65;;;;;;;9.82;91.02;101605.00;5068539;28;20017;-78
2022/05/22 04:27:15;;;;;;;20.08;7.45;;;;;;;9.84;91.59;101608.44;5061787;28;20043;-78
2022/05/22 04:29:41;;;;;;;19.63;8.15;;;;;;;9.87;91.70;101603.78;5057014;28;20028;-78
2022/05/22 04:32:06;;;;;;;21.02;8.20;;;;;;;9.89;91.58;101593.78;5050688;28;20028;-78
2022/05/22 04:34:32;;;;;;;21.77;8.63;;;;;;;9.94;91.77;101602.47;5050591;28;20027;-78
2022/05/22 04:36:57;;;;;;;20.58;9.02;;;;;;;9.94;91.44;101602.47;5049152;28;20564;-78
2022/05/22 04:39:22;;;;;;;21.67;8.95;;;;;;;9.96;91.67;101594.31;5056177;28;20052;-78
2022/05/22 04:41:48;;;;;;;22.17;9.60;;;;;;;9.98;91.53;101605.81;5069172;28;20385;-78
2022/05/22 04:44:13;;;;;;;19.15;8.50;;;;;;;10.00;91.59;101605.72;5066689;28;20402;-78
2022/05/22 04:46:38;;;;;;;21.23;9.60;;;;;;;10.03;91.41;101611.81;5059370;28;20041;-78
2022/05/22 04:49:03;;;;;;;20.38;9.13;;;;;;;10.04;91.46;101608.13;5064162;28;20032;-78
2022/05/22 04:51:29;;;;;;;21.58;8.60;;;;;;;10.03;91.84;101610.91;5073125;28;20039;-78
2022/05/22 04:53:54;;;;;;;22.13;9.32;;;;;;;10.04;92.05;101613.50;5072533;28;20369;-78
2022/05/22 04:56:20;;;;;;;24.02;10.80;;;;;;;10.08;92.13;101604.31;5065229;28;20039;-78
2022/05/22 04:58:47;;;;;;;22.58;10.25;;;;;;;10.12;92.48;101603.19;5071711;28;20434;-78
2022/05/22 05:01:13;;;;;;;23.58;10.77;;;;;;;10.14;92.82;101593.19;5064797;28;20047;-78
2022/05/22 05:03:38;;;;;;;25.88;12.05;;;;;;;10.19;92.50;101592.06;5065104;28;20024;-77
2022/05/22 05:06:04;;;;;;;23.48;12.30;;;;;;;10.18;92.47;101588.53;5067450;28;20086;-77
2022/05/22 05:08:30;;;;;;;22.15;11.98;;;;;;;10.20;92.82;101593.81;5053761;28;20057;-79
2022/05/22 05:10:56;;;;;;;21.60;11.48;;;;;;;10.24;93.11;101592.69;5054007;28;20028;-78
2022/05/22 05:13:23;;;;;;;23.92;11.32;;;;;;;10.27;93.00;101589.81;5053053;28;20056;-78
2022/05/22 05:16:05;;;;;;;23.13;11.30;;;;;;;10.38;93.06;101594.56;5062363;28;20455;-78
2022/05/22 05:18:32;;;;;;;23.13;11.85;;;;;;;10.40;93.45;101593.50;5066574;28;20553;-78
2022/05/22 05:21:01;;;;;;;21.30;11.52;;;;;;;10.46;94.01;101592.28;5055784;28;20071;-78
2022/05/22 05:23:27;;;;;;;25.30;12.77;;;;;;;10.56;93.99;101590.75;5052212;28;20033;-78
2022/05/22 05:25:52;;;;;;;28.10;13.50;;;;;;;10.65;94.00;101587.47;5066609;28;20135;-78
2022/05/22 05:28:17;;;;;;;24.58;12.88;;;;;;;10.74;94.76;101586.03;5073538;28;20444;-78
2022/05/22 05:30:43;;;;;;;24.42;14.35;;;;;;;10.84;94.50;101589.88;5054111;28;20111;-78
2022/05/22 05:33:08;;;;;;;28.55;14.45;;;;;;;10.92;94.76;101578.69;5072494;28;20032;-78
2022/05/22 05:35:33;;;;;;;25.83;14.00;;;;;;;11.00;94.57;101587.09;5071157;28;20452;-78
2022/05/22 05:37:59;;;;;;;30.25;16.20;;;;;;;11.06;93.48;101596.63;5058047;28;20064;-78
2022/05/22 05:40:24;;;;;;;25.30;14.43;;;;;;;11.14;93.59;101593.44;5065351;28;20025;-78
2022/05/22 05:42:49;;;;;;;26.70;14.73;;;;;;;11.22;91.52;101595.66;5072554;28;20020;-78
2022/05/22 05:45:15;;;;;;;27.73;13.95;;;;;;;11.32;91.83;101597.63;5073135;28;20472;-78
2022/05/22 05:47:44;;;;;;;27.23;14.70;;;;;;;11.40;93.32;101591.75;5061285;28;20041;-78
2022/05/22 05:50:10;;;;;;;24.77;14.67;;;;;;;11.53;93.04;101589.97;5071478;28;20120;-78
2022/05/22 05:52:35;;;;;;;29.23;14.88;;;;;;;11.65;92.64;101592.84;5060588;28;20123;-78
2022/05/22 05:55:01;;;;;;;29.33;15.30;;;;;;;11.74;90.25;101594.91;5067002;28;20440;-78
2022/05/22 05:57:26;;;;;;;27.58;14.98;;;;;;;11.80;91.11;101597.22;5070894;28;20048;-78
2022/05/22 05:59:53;;;;;;;25.30;13.73;;;;;;;11.85;87.62;101595.06;5072921;28;20030;-78
2022/05/22 06:02:19;;;;;;;26.00;14.18;;;;;;;11.93;87.58;101596.38;5069870;28;20024;-78
2022/05/22 06:04:44;;;;;;;31.08;14.27;;;;;;;11.99;89.23;101593.31;5072018;28;20476;-78
2022/05/22 06:07:09;;;;;;;28.20;14.00;;;;;;;12.05;88.56;101593.78;5071321;28;20032;-78
2022/05/22 06:09:36;;;;;;;28.23;13.27;;;;;;;12.14;88.70;101604.88;5068666;28;20091;-78
2022/05/22 06:12:01;;;;;;;24.80;13.13;;;;;;;12.19;85.54;101597.34;5072856;28;20032;-78
2022/05/22 06:14:27;;;;;;;25.95;14.65;;;;;;;12.25;87.61;101594.22;5059805;28;20068;-78
2022/05/22 06:16:52;;;;;;;29.55;15.07;;;;;;;12.34;87.95;101600.81;5051081;28;20351;-78
2022/05/22 06:19:53;;;;;;;25.65;13.93;;;;;;;12.39;85.25;101602.25;5055420;28;20136;-78
2022/05/22 06:22:03;;;;;;;26.42;13.98;;;;;;;12.46;85.32;101597.28;5065436;28;20044;-78
2022/05/22 06:24:28;;;;;;;25.08;13.93;;;;;;;12.53;84.88;101590.50;5069785;28;20024;-78
2022/05/22 06:26:54;;;;;;;26.77;14.38;;;;;;;12.60;84.77;101601.72;5071581;28;20060;-78
2022/05/22 06:29:19;;;;;;;28.02;14.88;;;;;;;12.64;84.45;101597.00;5071298;28;20353;-78
2022/05/22 06:31:44;;;;;;;27.42;14.00;;;;;;;12.66;86.03;101600.44;5072365;28;20112;-78
2022/05/22 06:34:09;;;;;;;25.73;14.43;;;;;;;12.70;85.77;101602.78;5070528;28;20062;-78
2022/05/22 06:36:35;;;;;;;25.35;14.07;;;;;;;12.74;84.34;101608.84;5072367;28;20536;-78
2022/05/22 06:41:44;;;;;;;27.42;14.18;;;;;;;12.87;87.38;101604.31;5072485;28;20408;-78
2022/05/22 06:44:09;;;;;;;27.23;14.05;;;;;;;12.91;85.38;101610.34;5069033;28;20029;-78
2022/05/22 06:46:34;;;;;;;23.90;13.98;;;;;;;12.98;86.09;101614.31;5053500;28;20445;-78
2022/05/22 06:49:01;;;;;;;25.58;14.23;;;;;;;13.04;83.04;101613.88;5070693;28;20029;-78
2022/05/22 06:51:27;;;;;;;27.38;14.05;;;;;;;13.14;82.92;101603.31;5070424;28;20028;-78
2022/05/22 06:53:52;;;;;;;29.88;13.88;;;;;;;13.23;81.77;101604.47;5063054;28;20029;-78
2022/05/22 06:56:17;;;;;;;25.88;13.75;;;;;;;13.33;81.85;101607.38;5060094;28;20020;-78
2022/05/22 06:58:42;;;;;;;28.98;13.52;;;;;;;13.41;80.27;101610.38;5068537;28;20060;-78
2022/05/22 07:01:08;;;;;;;25.42;13.52;;;;;;;13.50;79.59;101606.16;5065520;28;20466;-78
2022/05/22 07:03:34;;;;;;;27.52;13.75;;;;;;;13.57;78.42;101607.44;5058650;28;20042;-78
2022/05/22 07:06:00;;;;;;;25.05;13.43;;;;;;;13.62;78.43;101608.81;5064718;28;20408;-78
2022/05/22 07:08:27;;;;;;;26.33;12.38;;;;;;;13.69;78.81;101611.06;5042776;28;20143;-78
2022/05/22 07:13:36;;;;;;;25.67;12.48;;;;;;;13.80;77.96;101598.47;5059312;28;20023;-78
2022/05/22 07:16:04;;;;;;;24.20;13.35;;;;;;;13.91;78.85;101594.97;5055399;28;20037;-78
2022/05/22 07:18:29;;;;;;;24.55;12.23;;;;;;;13.95;77.91;101596.47;5070699;28;20471;-78
2022/05/22 07:20:55;;;;;;;27.83;11.98;;;;;;;14.02;77.41;101598.69;5051208;28;20044;-78
2022/05/22 07:23:20;;;;;;;24.77;11.18;;;;;;;14.11;78.05;101598.84;5051265;28;20063;-78
2022/05/22 07:25:45;;;;;;;25.15;12.18;;;;;;;14.22;80.48;101592.63;5049801;28;20111;-78
2022/05/22 07:28:11;;;;;;;25.95;11.60;;;;;;;14.30;77.28;101584.78;5061350;28;20134;-78
2022/05/22 07:30:36;;;;;;;22.98;11.02;;;;;;;14.35;74.75;101584.44;5060330;28;20025;-78
2022/05/22 07:33:01;;;;;;;24.33;11.10;;;;;;;14.43;76.41;101587.38;5051113;28;20031;-78
2022/05/22 07:35:26;;;;;;;27.02;11.25;;;;;;;14.49;76.76;101591.47;5050549;28;20029;-78
2022/05/22 07:37:52;;;;;;;28.33;11.88;;;;;;;14.55;73.84;101592.81;5062175;28;20371;-78
2022/05/22 07:40:18;;;;;;;25.63;11.98;;;;;;;14.62;74.51;101586.84;5069396;28;20016;-78
2022/05/22 07:42:43;;;;;;;25.83;12.05;;;;;;;14.72;76.58;101594.25;5057672;28;20582;-78
2022/05/22 07:45:12;;;;;;;22.58;9.65;;;;;;;14.76;75.30;101585.75;5059510;28;20028;-80
2022/05/22 07:47:38;;;;;;;23.30;9.60;;;;;;;14.80;73.00;101587.25;5065781;28;20035;-80
2022/05/22 07:50:18;;;;;;;24.63;10.73;;;;;;;14.88;71.62;101593.91;5068158;28;20028;-81
2022/05/22 07:52:50;;;;;;;21.48;9.52;;;;;;;14.93;70.19;101581.69;5066560;28;20047;-78
2022/05/22 07:55:18;;;;;;;20.90;9.55;;;;;;;14.96;68.98;101584.16;5061697;28;20016;-78
2022/05/22 07:57:51;;;;;;;21.10;8.07;;;;;;;15.02;73.46;101569.25;5062342;28;20047;-78
2022/05/22 08:00:20;;;;;;;18.33;5.65;;;;;;;15.07;66.32;101566.22;5048205;28;20032;-78
2022/05/22 08:02:46;;;;;;;13.45;5.28;;;;;;;15.12;68.11;101567.53;5064800;28;20435;-78
2022/05/22 08:05:17;;;;;;;17.70;6.13;;;;;;;15.22;71.93;101570.34;5057169;28;20412;-78
2022/05/22 08:07:42;;;;;;;20.23;5.72;;;;;;;15.26;64.14;101573.69;5065577;28;20032;-78
2022/05/22 08:10:09;;;;;;;13.80;4.55;;;;;;;15.29;61.42;101565.31;5059432;28;20135;-78
2022/05/22 08:12:39;;;;;;;18.10;5.93;;;;;;;15.43;68.60;101561.47;5062717;28;20032;-78
2022/05/22 08:15:06;;;;;;;20.15;6.60;;;;;;;15.51;66.37;101564.41;5049875;28;20035;-78
2022/05/22 08:17:36;;;;;;;19.70;6.32;;;;;;;15.60;65.19;101551.94;5055498;28;20439;-78
2022/05/22 08:20:06;;;;;;;14.57;4.55;;;;;;;15.67;62.58;101554.00;5081499;28;20486;-78
2022/05/22 08:22:31;;;;;;;16.70;6.28;;;;;;;15.76;63.51;101546.94;5052507;28;20112;-78
2022/05/22 08:24:57;;;;;;;17.65;5.70;;;;;;;15.79;61.19;101540.44;5063991;28;20183;-78
2022/05/22 08:27:22;;;;;;;17.73;6.15;;;;;;;15.83;62.75;101531.06;5082943;28;20029;-78
2022/05/22 08:29:47;;;;;;;13.50;4.38;;;;;;;15.92;62.89;101530.28;5062223;28;20033;-78
2022/05/22 08:32:12;;;;;;;14.88;4.35;;;;;;;15.96;61.89;101526.31;5061805;28;20070;-78
2022/05/22 08:34:38;;;;;;;17.92;5.07;;;;;;;16.03;62.47;101519.38;5062315;28;20025;-78
2022/05/22 08:37:04;;;;;;;15.10;4.07;;;;;;;16.10;61.88;101516.13;5052337;28;20028;-78
2022/05/22 08:39:29;;;;;;;13.60;3.65;;;;;;;16.17;59.64;101511.91;5061422;28;20367;-78
2022/05/22 08:41:57;;;;;;;14.15;3.90;;;;;;;16.22;59.23;101506.94;5058479;28;20099;-78
2022/05/22 08:44:31;;;;;;;13.00;3.50;;;;;;;16.23;58.14;101503.22;5051722;28;20028;-78
2022/05/22 08:47:06;;;;;;;12.75;3.78;;;;;;;16.27;58.71;101507.41;5071671;28;20048;-78
2022/05/22 08:49:53;;;;;;;12.52;3.83;;;;;;;16.34;61.83;101505.88;5081606;28;20058;-78
2022/05/22 08:52:40;;;;;;;15.75;4.68;;;;;;;16.42;61.08;101499.78;5053000;28;20144;-78
2022/05/22 09:01:25;;;;;;;17.20;6.07;;;;;;;16.48;61.30;101492.94;5069611;28;20051;-78
2022/05/22 09:04:11;;;;;;;20.77;6.60;;;;;;;16.53;62.86;101496.97;5063798;28;20025;-78
2022/05/22 09:06:46;;;;;;;21.13;6.57;;;;;;;16.57;61.63;101481.25;5055946;28;20363;-78
2022/05/22 09:09:11;;;;;;;15.57;5.95;;;;;;;16.62;62.35;101481.72;5028398;28;1016633;-78
2022/05/22 09:11:50;;;;;;;22.63;6.97;;;;;;;16.66;61.76;101479.59;5064699;28;20036;-78
2022/05/22 09:14:24;;;;;;;17.83;6.55;;;;;;;16.74;62.57;101483.34;5069701;28;20037;-78
2022/05/22 09:17:00;;;;;;;19.75;6.63;;;;;;;16.80;61.89;101478.38;5063337;28;21010;-78
2022/05/22 09:19:44;;;;;;;18.95;6.35;;;;;;;16.85;61.33;101478.78;5066153;28;20338;-78
2022/05/22 09:22:28;;;;;;;16.77;6.13;;;;;;;16.90;60.26;101473.84;5073563;28;20062;-78
2022/05/22 09:25:11;;;;;;;20.48;6.78;;;;;;;16.92;58.83;101477.28;5048782;28;20028;-78
2022/05/22 09:28:00;;;;;;;18.98;6.63;;;;;;;16.97;60.48;101477.75;5071134;28;20086;-78
2022/05/22 09:30:49;;;;;;;17.90;6.75;;;;;;;17.03;58.54;101471.75;5067140;28;20695;-78
2022/05/22 09:33:28;;;;;;;18.08;6.72;;;;;;;17.17;61.42;101466.91;5066807;28;20047;-78
2022/05/22 09:36:07;;;;;;;22.33;7.07;;;;;;;17.24;62.36;101460.75;5072335;28;20035;-78
2022/05/22 09:39:20;;;;;;;19.00;7.25;;;;;;;17.29;62.62;101460.31;5065907;28;20111;-78
2022/05/22 09:41:56;;;;;;;21.10;7.63;;;;;;;17.28;58.62;101454.03;4957683;28;20422;-78
2022/05/22 09:44:44;;;;;;;22.33;7.75;;;;;;;17.29;60.44;101454.91;4954790;28;20114;-78
2022/05/22 09:47:29;;;;;;;21.58;7.13;;;;;;;17.31;59.40;101444.75;4959077;28;20276;-78
2022/05/22 09:50:05;;;;;;;20.85;6.72;;;;;;;17.37;56.61;101446.06;4941719;28;20038;-79
2022/05/22 09:52:52;;;;;;;17.95;6.18;;;;;;;17.41;58.35;101448.34;4942279;28;20050;-78
2022/05/22 09:55:24;;;;;;;21.60;6.97;;;;;;;17.42;54.72;101452.78;4942370;28;20033;-78
2022/05/22 09:58:06;;;;;;;20.25;6.65;;;;;;;17.49;55.06;101460.34;4942664;28;20027;-78
2022/05/22 10:00:50;;;;;;;16.95;6.07;;;;;;;17.54;57.35;101453.50;4958459;28;20042;-78
2022/05/22 10:03:37;;;;;;;18.13;6.63;;;;;;;17.63;56.32;101462.66;4956710;28;20046;-79
2022/05/22 10:06:41;;;;;;;19.10;6.70;;;;;;;17.70;57.13;101461.06;4958842;28;20529;-78
2022/05/22 10:09:34;;;;;;;22.83;7.07;;;;;;;17.68;54.69;101451.34;4958315;28;20103;-78
2022/05/22 10:12:23;;;;;;;16.80;6.07;;;;;;;17.81;58.28;101446.47;4958033;28;20204;-78
2022/05/22 10:15:13;;;;;;;18.50;5.68;;;;;;;17.88;56.95;101449.44;4959397;28;20534;-78
2022/05/22 10:18:16;;;;;;;18.55;6.88;;;;;;;17.95;57.55;101434.28;4985836;28;20125;-78
2022/05/22 10:21:35;;;;;;;22.60;7.35;;;;;;;18.02;56.40;101440.84;5070989;28;20495;-78
2022/05/22 10:24:51;;;;;;;20.10;6.68;;;;;;;18.02;56.24;101435.41;5016285;28;20037;-77
2022/05/22 10:27:37;;;;;;;18.73;6.68;;;;;;;18.07;55.43;101430.41;4958260;28;20100;-78
2022/05/22 10:30:13;;;;;;;17.40;6.28;;;;;;;18.09;56.84;101425.66;4941289;28;20065;-78
2022/05/22 10:33:02;;;;;;;15.90;5.38;;;;;;;18.11;58.06;101426.38;4938145;28;20098;-78
2022/05/22 10:35:47;;;;;;;20.37;7.07;;;;;;;18.24;56.53;101417.88;4951566;28;20496;-78
2022/05/22 10:38:21;;;;;;;19.33;7.25;;;;;;;18.28;54.77;101421.16;4958095;28;20297;-78
2022/05/22 10:43:42;;;;;;;20.73;6.70;;;;;;;18.22;53.51;101406.28;4956891;28;20544;-79
2022/05/22 10:46:07;;;;;;;19.13;6.63;;;;;;;18.29;52.61;101398.41;4955085;28;20071;-78
2022/05/22 10:48:35;;;;;;;20.73;7.20;;;;;;;18.38;52.74;101402.09;4958304;28;20542;-79
2022/05/22 10:51:11;;;;;;;19.52;6.43;;;;;;;18.59;56.40;101393.66;4957060;28;20105;-78
2022/05/22 10:53:51;;;;;;;18.05;5.63;;;;;;;18.76;60.20;101392.84;4957446;28;20105;-79
2022/05/22 10:56:18;;;;;;;17.08;6.20;;;;;;;18.78;53.69;101381.78;4958095;28;20046;-78
2022/05/22 10:58:53;;;;;;;18.23;6.53;;;;;;;18.76;53.33;101375.66;4995585;28;20143;-79
2022/05/22 11:01:21;;;;;;;16.98;6.38;;;;;;;18.89;53.52;101378.00;5039709;28;20044;-78
2022/05/22 11:03:47;;;;;;;18.07;6.23;;;;;;;18.99;55.71;101379.69;5064321;28;20043;-78
2022/05/22 11:06:18;;;;;;;20.45;7.78;;;;;;;19.03;52.49;101380.22;5071243;28;20027;-79
2022/05/22 11:08:50;;;;;;;19.92;7.10;;;;;;;19.00;53.42;101381.38;5071911;28;20648;-78
2022/05/22 11:11:23;;;;;;;19.23;7.13;;;;;;;18.93;54.65;101379.44;5062012;28;20032;-79
2022/05/22 11:13:51;;;;;;;17.77;5.95;;;;;;;18.97;53.75;101370.78;5068782;28;20084;-78
2022/05/22 11:16:19;;;;;;;20.13;7.28;;;;;;;18.92;52.64;101369.53;5069220;28;20547;-79
2022/05/22 11:18:46;;;;;;;20.30;6.50;;;;;;;18.85;55.32;101366.56;5063229;28;20028;-78
2022/05/22 11:21:22;;;;;;;19.85;6.63;;;;;;;18.75;52.26;101360.31;5062078;28;20028;-78
2022/05/22 11:23:58;;;;;;;18.95;7.05;;;;;;;18.69;52.40;101357.19;5071135;28;20032;-78
2022/05/22 11:26:47;;;;;;;20.95;6.90;;;;;;;18.67;54.25;101347.50;5060721;28;20034;-78
2022/05/22 11:29:33;;;;;;;19.17;7.07;;;;;;;18.73;51.77;101338.69;5072595;28;20108;-79
2022/05/22 11:32:03;;;;;;;20.30;7.40;;;;;;;18.86;55.46;101331.03;5061597;28;20711;-78
2022/05/22 11:34:35;;;;;;;22.35;6.95;;;;;;;18.95;53.06;101331.13;5064154;28;20043;-78
2022/05/22 11:37:11;;;;;;;18.13;6.75;;;;;;;18.96;53.75;101330.09;5066568;28;20032;-78
2022/05/22 11:40:03;;;;;;;19.02;6.57;;;;;;;19.02;53.68;101326.75;5064431;28;20040;-79
2022/05/22 11:42:34;;;;;;;18.98;6.55;;;;;;;18.97;50.78;101323.63;5061725;28;20142;-78
2022/05/22 11:45:40;;;;;;;19.58;7.20;;;;;;;18.94;53.54;101315.78;5060354;28;20032;-78
2022/05/22 11:48:18;;;;;;;21.13;7.28;;;;;;;18.95;53.19;101320.22;5028328;28;20098;-78
2022/05/22 11:50:54;;;;;;;18.77;6.10;;;;;;;19.05;56.75;101312.81;5033067;28;20033;-78